SBRF/REC METAR and TAF weather

Enter ICAO airport designator
Station Type Date Time Source
SBRF METAR 2023/01/30 10:00 UTC NOAA

SBRF 301000Z 12009KT 9999 BKN023 28/22 Q1011


Station Type Date Time Source
SBRF Decoded METAR 2023/01/30 10:00 UTC NOAA

Recife Aeroporto , Brazil (SBRF) 08-04S 034-51W
Jan 30, 2023 - 05:00 AM EST / 2023.01.30 1000 UTC
Wind: from the ESE (120 degrees) at 10 MPH (9 KT):0
Visibility: greater than 7 mile(s):0
Sky conditions: mostly cloudy
Temperature: 82 F (28 C)
Dew Point: 71 F (22 C)
Relative Humidity: 69%
Pressure (altimeter): 29.85 in. Hg (1011 hPa)
ob: SBRF 301000Z 12009KT 9999 BKN023 28/22 Q1011
cycle: 10

Station Type Date Time Source
SBRF TAF 2023/01/30 12:59 UTC NOAA

TAF SBRF 300859Z 3012/3112 12006G16KT 9999 SCT023 TX29/3016Z TN25/3109Z
RMK PGX

Example: see airport list